Time;durP1;ratioP1;P1;durP2;ratioP2;P2;SDS_P1;SDS_P2;PMS_P1;PMS_P2;Temp;Humidity;BMP_temperature;BMP_pressure;BME280_temperature;BME280_humidity;BME280_pressure;Samples;Min_cycle;Max_cycle;Signal;HPM_P1;HPM_P2
2022/07/04 00:00:49;;;;;;;3.78;3.38;;;19.80;99.90;;;;;;5089131;28;20866;-80
2022/07/04 00:03:15;;;;;;;3.30;3.00;;;19.80;99.90;;;;;;5088056;28;20385;-83
2022/07/04 00:05:41;;;;;;;4.03;3.20;;;19.80;99.90;;;;;;5089280;28;20375;-81
2022/07/04 00:08:07;;;;;;;3.87;3.20;;;;;;;;;;5089589;28;20372;-81
2022/07/04 00:10:34;;;;;;;6.93;3.45;;;;;;;;;;5085787;28;20785;-82
2022/07/04 00:12:59;;;;;;;4.53;3.58;;;19.50;99.90;;;;;;5069763;28;20382;-82
2022/07/04 00:15:25;;;;;;;3.57;3.27;;;19.40;99.90;;;;;;5068457;28;20381;-82
2022/07/04 00:17:51;;;;;;;3.90;3.60;;;19.30;99.90;;;;;;5069582;28;20447;-84
2022/07/04 00:20:17;;;;;;;4.53;4.20;;;19.30;99.90;;;;;;5075993;28;20866;-81
2022/07/04 00:22:44;;;;;;;4.10;3.70;;;19.40;99.90;;;;;;5088260;28;20461;-82
2022/07/04 00:25:09;;;;;;;4.13;3.72;;;19.40;99.90;;;;;;5087760;28;20434;-83
2022/07/04 00:27:35;;;;;;;4.87;3.43;;;19.20;99.90;;;;;;5088080;28;20409;-82
2022/07/04 00:30:01;;;;;;;4.90;4.40;;;19.10;99.90;;;;;;5087284;28;20385;-80
2022/07/04 00:32:26;;;;;;;7.28;4.28;;;19.10;99.90;;;;;;5088688;28;20360;-81
2022/07/04 00:34:52;;;;;;;4.17;3.87;;;19.00;99.90;;;;;;5088671;28;20384;-81
2022/07/04 00:37:18;;;;;;;4.93;4.43;;;18.90;99.90;;;;;;5086843;28;20378;-82
2022/07/04 00:39:44;;;;;;;4.80;4.20;;;18.80;99.90;;;;;;5088497;28;20379;-83
2022/07/04 00:42:10;;;;;;;5.10;4.60;;;18.70;99.90;;;;;;5087884;28;20389;-82
2022/07/04 00:44:36;;;;;;;5.00;4.60;;;18.60;99.90;;;;;;5088478;28;21024;-83
2022/07/04 00:47:03;;;;;;;5.63;4.97;;;18.50;99.90;;;;;;5088195;28;20400;-82
2022/07/04 00:49:29;;;;;;;6.82;5.32;;;18.50;99.90;;;;;;5088263;28;20409;-82
2022/07/04 00:51:55;;;;;;;5.70;5.20;;;;;;;;;;5087717;28;20372;-82
2022/07/04 00:54:26;;;;;;;5.93;5.27;;;18.30;99.90;;;;;;5086687;28;20373;-83
2022/07/04 00:56:52;;;;;;;6.25;5.60;;;18.30;99.90;;;;;;5086781;28;20839;-82
2022/07/04 00:59:18;;;;;;;6.18;5.57;;;18.30;99.90;;;;;;5088041;28;20381;-82
2022/07/04 01:01:43;;;;;;;7.15;6.53;;;18.20;99.90;;;;;;5088280;28;20384;-82
2022/07/04 01:04:09;;;;;;;6.80;6.27;;;18.20;99.90;;;;;;5087185;28;20380;-82
2022/07/04 01:06:35;;;;;;;8.23;7.43;;;18.10;99.90;;;;;;5089208;28;20405;-84
2022/07/04 01:09:01;;;;;;;8.27;7.68;;;18.00;99.90;;;;;;5087574;28;20388;-83
2022/07/04 01:11:26;;;;;;;8.65;7.85;;;17.90;99.90;;;;;;5086462;28;20388;-82
2022/07/04 01:13:56;;;;;;;9.03;8.13;;;17.90;99.90;;;;;;5087289;28;20399;-84
2022/07/04 01:16:24;;;;;;;9.55;8.70;;;17.80;99.90;;;;;;5087894;28;20433;-82
2022/07/04 01:18:51;;;;;;;9.68;8.68;;;17.70;99.90;;;;;;5088032;28;20377;-83
2022/07/04 01:21:18;;;;;;;10.57;9.52;;;17.60;99.90;;;;;;5087547;28;20384;-83
2022/07/04 01:23:44;;;;;;;10.05;9.25;;;17.60;99.90;;;;;;5086661;28;20372;-84
2022/07/04 01:26:10;;;;;;;10.98;10.07;;;17.60;99.90;;;;;;5088179;28;20909;-82
2022/07/04 01:28:35;;;;;;;11.13;10.07;;;17.60;99.90;;;;;;5087958;28;20380;-83
2022/07/04 01:31:01;;;;;;;11.43;10.43;;;17.50;99.90;;;;;;5087266;28;20376;-82
2022/07/04 01:33:27;;;;;;;12.05;11.05;;;17.50;99.90;;;;;;5086907;28;20483;-83
2022/07/04 01:35:53;;;;;;;13.13;11.32;;;17.50;99.90;;;;;;5088413;28;20386;-83
2022/07/04 01:38:18;;;;;;;12.27;11.23;;;17.40;99.90;;;;;;5088193;28;20372;-83
2022/07/04 01:40:45;;;;;;;13.33;12.23;;;17.40;99.90;;;;;;5086869;28;20434;-83
2022/07/04 01:43:10;;;;;;;14.13;12.93;;;17.50;99.90;;;;;;5086725;28;20412;-83
2022/07/04 01:45:39;;;;;;;13.98;12.80;;;17.40;99.90;;;;;;5089137;28;20379;-83
2022/07/04 01:48:10;;;;;;;14.00;12.88;;;17.50;99.90;;;;;;5087956;28;20486;-83
2022/07/04 01:50:36;;;;;;;15.02;13.50;;;17.40;99.90;;;;;;5087205;28;20373;-82
2022/07/04 01:53:02;;;;;;;14.43;13.32;;;17.30;99.90;;;;;;5086491;28;20850;-82
2022/07/04 01:55:29;;;;;;;15.13;13.82;;;17.20;99.90;;;;;;5087931;28;20477;-83
2022/07/04 01:57:55;;;;;;;14.85;13.65;;;17.30;99.90;;;;;;5086156;28;20384;-83
2022/07/04 02:03:04;;;;;;;16.30;14.90;;;17.30;99.90;;;;;;5088087;28;20423;-83
2022/07/04 02:05:30;;;;;;;16.93;15.57;;;17.20;99.90;;;;;;5087406;28;20920;-83
2022/07/04 02:07:56;;;;;;;15.90;14.60;;;17.10;99.90;;;;;;5086299;28;20430;-83
2022/07/04 02:10:22;;;;;;;17.13;15.73;;;17.10;99.90;;;;;;5087462;28;20891;-83
2022/07/04 02:13:03;;;;;;;16.52;15.15;;;17.00;99.90;;;;;;5089435;28;20442;-83
2022/07/04 02:15:36;;;;;;;17.15;15.55;;;17.00;99.90;;;;;;5091090;28;20471;-83
2022/07/04 02:18:04;;;;;;;16.48;15.02;;;17.00;99.90;;;;;;5071914;28;20431;-82
2022/07/04 02:20:31;;;;;;;17.52;15.93;;;17.00;99.90;;;;;;5076737;28;20374;-82
2022/07/04 02:22:57;;;;;;;17.95;16.38;;;17.00;99.90;;;;;;5071537;28;20374;-83
2022/07/04 02:25:23;;;;;;;17.35;15.95;;;17.00;99.90;;;;;;5090910;28;20369;-83
2022/07/04 02:27:49;;;;;;;18.05;16.58;;;16.90;99.90;;;;;;5090318;28;20404;-83
2022/07/04 02:30:15;;;;;;;17.58;16.20;;;16.80;99.90;;;;;;5090819;28;20373;-83
2022/07/04 02:32:41;;;;;;;18.05;16.33;;;16.80;99.90;;;;;;5089074;28;20437;-83
2022/07/04 02:35:08;;;;;;;18.77;16.95;;;16.80;99.90;;;;;;5089380;28;20396;-83
2022/07/04 02:37:34;;;;;;;19.42;17.75;;;16.70;99.90;;;;;;5089849;28;20937;-83
2022/07/04 02:39:59;;;;;;;18.23;16.73;;;16.60;99.90;;;;;;5090457;28;20415;-83
2022/07/04 02:42:30;;;;;;;19.85;18.27;;;16.60;99.90;;;;;;5088573;28;20450;-83
2022/07/04 02:44:55;;;;;;;19.95;18.05;;;16.70;99.90;;;;;;5090609;28;20410;-82
2022/07/04 02:47:21;;;;;;;21.37;19.47;;;16.70;99.90;;;;;;5089347;28;20428;-83
2022/07/04 02:49:46;;;;;;;21.58;19.88;;;16.80;99.90;;;;;;5090357;28;20731;-82
2022/07/04 02:52:13;;;;;;;20.00;18.33;;;16.80;99.90;;;;;;5088781;28;20373;-83
2022/07/04 02:54:38;;;;;;;20.40;18.70;;;16.60;99.90;;;;;;5089109;28;20376;-83
2022/07/04 02:57:04;;;;;;;21.17;19.47;;;16.50;99.90;;;;;;5072925;28;20435;-82
2022/07/04 02:59:30;;;;;;;19.40;17.90;;;16.50;99.90;;;;;;5070532;28;20386;-83
2022/07/04 03:01:55;;;;;;;18.37;16.97;;;16.50;99.90;;;;;;5070529;28;20410;-83
2022/07/04 03:04:21;;;;;;;20.50;18.70;;;16.50;99.90;;;;;;5069651;28;20378;-83
2022/07/04 03:06:47;;;;;;;21.20;19.50;;;16.40;99.90;;;;;;5069503;28;20552;-83
2022/07/04 03:09:12;;;;;;;19.05;17.58;;;16.40;99.90;;;;;;5075231;28;20386;-83
2022/07/04 03:11:38;;;;;;;21.00;19.33;;;16.40;99.90;;;;;;5074696;28;20860;-83
2022/07/04 03:14:03;;;;;;;21.40;19.50;;;16.40;99.90;;;;;;5069526;28;20563;-83
2022/07/04 03:16:29;;;;;;;20.83;19.23;;;16.40;99.90;;;;;;5070810;28;20996;-83
2022/07/04 03:18:55;;;;;;;20.75;19.05;;;16.40;99.90;;;;;;5069465;28;20535;-83
2022/07/04 03:21:20;;;;;;;20.00;18.30;;;16.40;99.90;;;;;;5084509;28;20581;-82
2022/07/04 03:24:08;;;;;;;21.07;19.37;;;16.40;99.90;;;;;;5081135;28;20382;-83
2022/07/04 03:26:33;;;;;;;20.23;18.30;;;16.40;99.90;;;;;;5070108;28;20515;-82
2022/07/04 03:29:00;;;;;;;19.80;18.13;;;16.50;99.90;;;;;;5068899;28;20824;-83
2022/07/04 03:31:26;;;;;;;20.92;19.08;;;16.50;99.90;;;;;;5069652;28;20405;-82
2022/07/04 03:33:52;;;;;;;20.73;18.92;;;16.50;99.90;;;;;;5068853;28;20476;-82
2022/07/04 03:36:18;;;;;;;20.65;19.00;;;16.50;99.90;;;;;;5070265;28;20852;-83
2022/07/04 03:38:44;;;;;;;18.23;16.73;;;16.40;99.90;;;;;;5070138;28;20378;-82
2022/07/04 03:41:10;;;;;;;18.95;17.25;;;16.50;99.90;;;;;;5068081;28;20370;-83
2022/07/04 03:43:36;;;;;;;19.77;17.77;;;16.50;99.90;;;;;;5070035;28;20396;-82
2022/07/04 03:46:02;;;;;;;19.42;17.65;;;16.40;99.90;;;;;;5070124;28;20394;-83
2022/07/04 03:48:27;;;;;;;19.60;17.90;;;16.50;99.90;;;;;;5068553;28;20370;-83
2022/07/04 03:50:53;;;;;;;19.67;17.97;;;16.40;99.90;;;;;;5081312;28;20714;-82
2022/07/04 03:53:19;;;;;;;18.85;17.27;;;16.50;99.90;;;;;;5089469;28;20908;-82
2022/07/04 03:55:45;;;;;;;19.27;17.58;;;16.50;99.90;;;;;;5087705;28;20384;-82
2022/07/04 03:58:11;;;;;;;18.10;16.70;;;16.50;99.90;;;;;;5087365;28;20403;-82
2022/07/04 04:00:37;;;;;;;17.37;15.97;;;16.60;99.90;;;;;;5089197;28;20380;-83
2022/07/04 04:05:25;;;;;;;17.27;15.77;;;16.60;99.90;;;;;;5089039;28;20372;-82
2022/07/04 04:05:48;;;;;;;15.77;14.33;;;16.60;99.90;;;;;;5089100;28;20373;-82
2022/07/04 04:08:14;;;;;;;15.75;14.25;;;16.60;99.90;;;;;;5089203;28;20534;-83
2022/07/04 04:10:39;;;;;;;14.50;13.10;;;16.60;99.90;;;;;;5087321;28;20386;-83
2022/07/04 04:13:05;;;;;;;14.13;13.03;;;16.70;99.90;;;;;;5087717;28;20467;-82
2022/07/04 04:15:30;;;;;;;13.30;12.10;;;16.70;99.90;;;;;;5088390;28;21286;-83
2022/07/04 04:17:56;;;;;;;12.50;11.27;;;16.80;99.90;;;;;;5089311;28;20862;-82
2022/07/04 04:20:22;;;;;;;12.23;11.13;;;16.80;99.90;;;;;;5087476;28;20880;-82
2022/07/04 04:22:47;;;;;;;12.27;11.07;;;16.80;99.90;;;;;;5089557;28;20380;-82
2022/07/04 04:25:13;;;;;;;12.43;11.02;;;16.90;99.90;;;;;;5087129;28;20425;-83
2022/07/04 04:27:39;;;;;;;10.50;9.60;;;16.90;99.90;;;;;;5088665;28;20731;-83
2022/07/04 04:30:05;;;;;;;9.68;8.88;;;17.10;99.90;;;;;;5086987;28;20404;-83
2022/07/04 04:32:31;;;;;;;10.38;9.38;;;17.10;99.90;;;;;;5088310;28;20459;-83
2022/07/04 04:34:57;;;;;;;9.13;8.23;;;17.00;99.90;;;;;;5085900;28;20480;-82
2022/07/04 04:37:23;;;;;;;9.27;8.43;;;17.20;99.90;;;;;;5088623;28;20376;-83
2022/07/04 04:39:49;;;;;;;8.55;7.85;;;17.40;99.90;;;;;;5088455;28;20878;-82
2022/07/04 04:42:14;;;;;;;8.87;7.63;;;17.50;99.90;;;;;;5086821;28;20381;-83
2022/07/04 04:44:40;;;;;;;8.63;7.83;;;17.70;99.90;;;;;;5086938;28;20400;-82
2022/07/04 04:47:05;;;;;;;8.47;6.87;;;17.70;99.90;;;;;;5088618;28;20451;-83
2022/07/04 04:49:31;;;;;;;6.60;6.00;;;17.90;99.90;;;;;;5088032;28;20426;-83
2022/07/04 04:51:57;;;;;;;6.80;6.10;;;18.10;99.90;;;;;;5088397;28;20372;-83
2022/07/04 04:54:22;;;;;;;6.37;5.77;;;18.30;99.90;;;;;;5088253;28;20743;-83
2022/07/04 04:56:48;;;;;;;6.10;5.43;;;18.50;99.90;;;;;;5087063;28;20376;-84
2022/07/04 04:59:14;;;;;;;5.10;4.67;;;18.70;99.90;;;;;;5088027;28;20437;-83
2022/07/04 05:01:39;;;;;;;7.03;4.38;;;18.90;99.90;;;;;;5088105;28;20394;-83
2022/07/04 05:04:05;;;;;;;6.30;4.20;;;19.20;99.90;;;;;;5083061;28;20395;-82
2022/07/04 05:06:30;;;;;;;5.63;3.80;;;19.60;99.90;;;;;;5080622;28;20407;-84
2022/07/04 05:08:56;;;;;;;3.77;3.20;;;19.60;99.90;;;;;;5085424;28;20380;-83
2022/07/04 05:11:22;;;;;;;4.63;3.25;;;19.60;99.90;;;;;;5086826;28;20415;-83
2022/07/04 05:13:47;;;;;;;3.97;2.97;;;19.60;99.90;;;;;;5086778;28;20397;-82
2022/07/04 05:16:13;;;;;;;7.18;3.13;;;19.70;99.90;;;;;;5087500;28;20381;-82
2022/07/04 05:18:39;;;;;;;3.03;2.47;;;19.80;99.90;;;;;;5088471;28;20379;-82
2022/07/04 05:21:06;;;;;;;4.97;2.70;;;19.90;99.90;;;;;;5076671;28;20370;-83
2022/07/04 05:23:31;;;;;;;3.47;2.60;;;19.90;99.90;;;;;;5069331;28;20379;-83
2022/07/04 05:25:57;;;;;;;2.90;2.10;;;19.80;99.90;;;;;;5075620;28;20392;-82
2022/07/04 05:28:23;;;;;;;2.85;2.00;;;19.80;99.90;;;;;;5074805;28;20435;-82
2022/07/04 05:30:49;;;;;;;2.97;2.20;;;19.80;99.90;;;;;;5069251;28;20378;-82
2022/07/04 05:33:15;;;;;;;3.58;2.13;;;20.00;99.90;;;;;;5070957;28;20398;-83
2022/07/04 05:35:40;;;;;;;2.58;2.38;;;20.10;99.90;;;;;;5068083;28;20464;-81
2022/07/04 05:38:06;;;;;;;3.77;2.23;;;20.00;99.90;;;;;;5069262;28;20382;-83
2022/07/04 05:40:31;;;;;;;2.83;2.10;;;20.00;99.90;;;;;;5068695;28;20385;-84
2022/07/04 05:42:57;;;;;;;3.47;2.50;;;20.00;99.90;;;;;;5067835;28;20439;-82
2022/07/04 05:45:23;;;;;;;3.07;2.13;;;19.90;99.90;;;;;;5075503;28;20393;-83
2022/07/04 05:47:48;;;;;;;4.63;2.40;;;20.00;99.90;;;;;;5076704;28;20466;-83
2022/07/04 05:50:14;;;;;;;3.10;2.30;;;20.30;99.90;;;;;;5077898;28;20729;-84
2022/07/04 05:52:40;;;;;;;3.40;2.30;;;20.40;99.90;;;;;;5091263;28;20896;-83
2022/07/04 05:55:07;;;;;;;4.13;2.35;;;20.60;99.90;;;;;;5091797;28;20384;-83
2022/07/04 05:57:33;;;;;;;3.70;2.00;;;20.70;99.90;;;;;;5080806;28;20454;-84
2022/07/04 05:59:58;;;;;;;2.60;2.00;;;20.80;99.90;;;;;;5083627;28;20381;-84
2022/07/04 06:02:24;;;;;;;2.72;1.90;;;21.10;99.90;;;;;;5082434;28;20509;-82
2022/07/04 06:04:50;;;;;;;2.57;2.07;;;21.30;99.90;;;;;;5071767;28;20851;-84
2022/07/04 06:07:16;;;;;;;3.30;2.20;;;21.50;99.90;;;;;;5071505;28;20515;-83
2022/07/04 06:09:42;;;;;;;4.40;2.55;;;21.60;99.90;;;;;;5091983;28;20383;-83
2022/07/04 06:12:07;;;;;;;3.10;2.70;;;21.70;99.90;;;;;;5082648;28;20382;-83
2022/07/04 06:14:33;;;;;;;3.47;2.20;;;21.60;99.90;;;;;;5071854;28;20370;-84
2022/07/04 06:16:59;;;;;;;5.07;2.37;;;21.50;99.90;;;;;;5072071;28;20727;-83
2022/07/04 06:19:24;;;;;;;3.60;2.30;;;21.40;99.90;;;;;;5072180;28;20370;-82
2022/07/04 06:21:50;;;;;;;3.08;2.40;;;21.20;99.90;;;;;;5090679;28;20796;-83
2022/07/04 06:24:16;;;;;;;3.60;2.00;;;21.10;99.90;;;;;;5087227;28;20409;-84
2022/07/04 06:26:41;;;;;;;4.07;2.40;;;21.20;99.90;;;;;;5088123;28;20396;-83
2022/07/04 06:29:07;;;;;;;3.60;2.07;;;21.30;99.90;;;;;;5091162;28;20426;-85
2022/07/04 06:31:33;;;;;;;3.85;2.03;;;21.20;99.90;;;;;;5089344;28;20449;-84
2022/07/04 06:36:44;;;;;;;5.60;2.13;;;21.10;99.90;;;;;;5091233;28;20383;-84
2022/07/04 06:39:10;;;;;;;2.57;1.73;;;21.20;99.90;;;;;;5085988;28;20387;-83
2022/07/04 06:41:36;;;;;;;4.88;2.00;;;21.40;99.90;;;;;;5090896;28;20376;-82
2022/07/04 06:44:01;;;;;;;2.00;1.53;;;21.40;99.90;;;;;;5090886;28;20380;-84
2022/07/04 06:46:28;;;;;;;2.15;1.42;;;21.70;99.90;;;;;;5083307;28;20500;-84
2022/07/04 06:48:53;;;;;;;4.30;1.52;;;22.10;99.90;;;;;;5070542;28;20390;-82
2022/07/04 06:51:19;;;;;;;3.00;1.35;;;22.00;99.90;;;;;;5072882;28;20386;-83
2022/07/04 06:53:45;;;;;;;3.10;1.30;;;21.70;99.90;;;;;;5072623;28;20382;-83
2022/07/04 06:56:11;;;;;;;4.57;1.50;;;21.40;99.90;;;;;;5070613;28;20740;-84
2022/07/04 06:58:37;;;;;;;2.72;1.50;;;21.30;99.90;;;;;;5074219;28;20468;-83
2022/07/04 07:01:03;;;;;;;4.40;1.50;;;21.20;99.90;;;;;;5089653;28;20582;-84
2022/07/04 07:03:28;;;;;;;3.30;1.42;;;21.30;99.90;;;;;;5086321;28;20382;-83
2022/07/04 07:05:56;;;;;;;2.47;1.17;;;21.40;99.90;;;;;;5071529;28;20793;-83
2022/07/04 07:08:22;;;;;;;3.20;1.48;;;21.20;99.90;;;;;;5075752;28;20417;-84
2022/07/04 07:10:48;;;;;;;4.00;1.70;;;21.20;99.90;;;;;;5070637;28;20872;-83
2022/07/04 07:13:14;;;;;;;3.05;1.27;;;21.30;99.90;;;;;;5071266;28;20374;-84
2022/07/04 07:15:40;;;;;;;5.28;1.92;;;21.70;99.90;;;;;;5069775;28;20394;-83
2022/07/04 07:18:06;;;;;;;15.67;2.70;;;22.00;99.90;;;;;;5072827;28;20377;-83
2022/07/04 07:20:32;;;;;;;7.47;1.85;;;22.20;99.90;;;;;;5072403;28;20374;-83
2022/07/04 07:22:58;;;;;;;7.25;1.67;;;22.50;99.90;;;;;;5079845;28;20393;-83
2022/07/04 07:25:24;;;;;;;3.95;1.63;;;22.40;99.90;;;;;;5089501;28;20719;-83
2022/07/04 07:27:50;;;;;;;3.22;1.38;;;22.20;99.90;;;;;;5079065;28;20408;-84
2022/07/04 07:30:15;;;;;;;2.17;1.33;;;22.30;99.90;;;;;;5070427;28;20900;-83
2022/07/04 07:32:41;;;;;;;4.70;1.58;;;22.60;99.90;;;;;;5074012;28;20381;-83
2022/07/04 07:35:07;;;;;;;5.07;1.77;;;22.60;99.90;;;;;;5068868;28;20387;-83
2022/07/04 07:37:33;;;;;;;6.13;1.58;;;22.70;99.90;;;;;;5078542;28;20384;-84
2022/07/04 07:39:59;;;;;;;3.10;1.23;;;22.80;99.90;;;;;;5089828;28;20777;-85
2022/07/04 07:42:25;;;;;;;4.70;1.60;;;22.60;99.90;;;;;;5089652;28;20867;-84
2022/07/04 07:44:51;;;;;;;5.22;1.52;;;22.60;99.90;;;;;;5080087;28;20908;-84
2022/07/04 07:47:16;;;;;;;4.03;1.50;;;22.80;99.90;;;;;;5073605;28;20448;-84
2022/07/04 07:49:42;;;;;;;4.18;1.63;;;23.30;99.90;;;;;;5070901;28;20367;-84
2022/07/04 07:52:08;;;;;;;4.40;1.50;;;23.60;99.90;;;;;;5067934;28;20381;-84
2022/07/04 07:54:34;;;;;;;9.70;2.72;;;23.80;99.90;;;;;;5068316;28;20924;-84
2022/07/04 07:57:00;;;;;;;3.75;1.48;;;24.00;99.90;;;;;;5069725;28;20457;-85
2022/07/04 07:59:25;;;;;;;3.23;1.20;;;24.10;99.90;;;;;;5068454;28;20516;-83
2022/07/04 08:01:51;;;;;;;3.80;1.30;;;24.20;99.90;;;;;;5068064;28;20473;-84
2022/07/04 08:04:35;;;;;;;2.97;1.30;;;23.90;99.90;;;;;;5070263;28;20868;-83
2022/07/04 08:07:10;;;;;;;2.72;1.20;;;23.70;99.90;;;;;;5068371;28;20510;-84
2022/07/04 08:09:36;;;;;;;2.78;1.40;;;23.80;99.90;;;;;;5071620;28;20489;-83
2022/07/04 08:12:03;;;;;;;3.83;1.55;;;23.80;99.90;;;;;;5069396;28;20382;-85
2022/07/04 08:14:30;;;;;;;5.57;1.50;;;23.60;99.90;;;;;;5068277;28;20379;-85
2022/07/04 08:16:57;;;;;;;6.57;1.88;;;23.20;99.90;;;;;;5067907;28;20680;-83
2022/07/04 08:19:24;;;;;;;3.93;1.50;;;23.20;99.90;;;;;;5069441;28;20370;-84
2022/07/04 08:21:54;;;;;;;3.55;1.13;;;22.80;99.90;;;;;;5086609;28;21000;-84
2022/07/04 08:24:19;;;;;;;3.15;1.33;;;22.80;99.90;;;;;;5088618;28;20375;-84
2022/07/04 08:26:47;;;;;;;3.17;1.15;;;22.80;99.90;;;;;;5088737;28;20453;-84
2022/07/04 08:29:18;;;;;;;4.05;1.50;;;23.00;99.90;;;;;;5089055;28;20862;-84
2022/07/04 08:31:44;;;;;;;3.55;1.38;;;23.30;99.90;;;;;;5088330;28;20388;-82
2022/07/04 08:34:10;;;;;;;2.40;1.00;;;23.00;99.90;;;;;;5087394;28;20469;-82
2022/07/04 08:36:36;;;;;;;2.30;1.33;;;22.90;99.90;;;;;;5087172;28;20392;-84
2022/07/04 08:39:03;;;;;;;4.25;1.50;;;22.60;99.90;;;;;;5082644;28;20404;-84
2022/07/04 08:41:36;;;;;;;2.22;1.40;;;22.30;99.90;;;;;;5068552;28;20420;-82
2022/07/04 08:44:03;;;;;;;1.85;1.10;;;22.20;99.90;;;;;;5068681;28;20864;-83
2022/07/04 08:46:30;;;;;;;2.70;1.23;;;22.30;99.90;;;;;;5069768;28;20417;-84
2022/07/04 08:49:01;;;;;;;1.98;0.90;;;22.50;99.90;;;;;;5079971;28;20468;-84
2022/07/04 08:51:43;;;;;;;2.40;1.02;;;22.60;99.90;;;;;;5085169;28;20368;-84
2022/07/04 08:59:40;;;;;;;2.78;1.00;;;23.80;99.90;;;;;;5082798;28;20413;-84
2022/07/04 09:02:06;;;;;;;2.45;1.10;;;24.60;99.90;;;;;;5075651;28;20414;-85
2022/07/04 09:04:32;;;;;;;3.95;1.52;;;24.90;99.80;;;;;;5070859;28;20405;-85
2022/07/04 09:06:58;;;;;;;2.53;1.03;;;24.70;99.70;;;;;;5074046;28;20398;-84
2022/07/04 09:09:25;;;;;;;2.17;1.07;;;24.10;98.90;;;;;;5067705;28;20478;-83
2022/07/04 09:11:51;;;;;;;4.03;1.05;;;23.90;99.30;;;;;;5075394;28;20379;-84
2022/07/04 09:14:16;;;;;;;3.10;1.10;;;23.80;99.90;;;;;;5079131;28;20401;-86
2022/07/04 09:16:44;;;;;;;2.55;1.00;;;24.00;99.90;;;;;;5068100;28;20924;-83
2022/07/04 09:19:20;;;;;;;3.27;0.97;;;24.20;99.90;;;;;;5078711;28;20451;-85
2022/07/04 09:21:47;;;;;;;3.53;0.95;;;24.80;99.90;;;;;;5089428;28;20384;-83
2022/07/04 09:24:13;;;;;;;3.03;1.20;;;25.20;97.30;;;;;;5078141;28;20371;-82
2022/07/04 09:26:46;;;;;;;1.45;0.90;;;25.20;98.50;;;;;;5076626;28;20404;-83
2022/07/04 09:29:12;;;;;;;2.40;1.10;;;24.80;97.30;;;;;;5071498;28;20378;-84
2022/07/04 09:31:38;;;;;;;2.88;1.20;;;24.50;99.80;;;;;;5086572;28;20403;-82
2022/07/04 09:34:07;;;;;;;2.10;1.00;;;24.60;98.90;;;;;;5073162;28;21150;-83
2022/07/04 09:36:38;;;;;;;1.50;1.07;;;24.40;97.20;;;;;;5072616;28;20370;-84
2022/07/04 09:39:05;;;;;;;2.58;1.20;;;24.20;97.90;;;;;;5081971;28;20384;-84
2022/07/04 09:41:48;;;;;;;4.07;1.00;;;24.20;98.60;;;;;;5089919;28;20391;-84
2022/07/04 09:44:14;;;;;;;3.92;1.15;;;24.00;99.00;;;;;;5090181;28;20460;-85
2022/07/04 09:46:40;;;;;;;2.67;1.10;;;24.20;98.70;;;;;;5090373;28;21505;-83
2022/07/04 09:49:05;;;;;;;4.80;1.30;;;24.20;98.40;;;;;;5084896;28;20400;-84
2022/07/04 09:51:38;;;;;;;4.80;1.10;;;24.40;98.10;;;;;;5089392;28;20415;-82
2022/07/04 09:54:26;;;;;;;4.93;1.00;;;24.60;98.20;;;;;;5089896;28;20981;-84
2022/07/04 09:56:58;;;;;;;3.20;0.90;;;25.20;96.10;;;;;;5075698;28;20790;-84
2022/07/04 09:59:26;;;;;;;1.70;0.90;;;25.20;96.90;;;;;;5072916;28;20402;-82
2022/07/04 10:02:13;;;;;;;3.13;1.03;;;25.60;94.60;;;;;;5069535;28;20412;-84
2022/07/04 10:04:47;;;;;;;3.75;1.08;;;25.70;94.10;;;;;;5092271;28;20412;-84
2022/07/04 10:07:31;;;;;;;2.43;1.07;;;25.40;94.60;;;;;;5090928;28;20483;-83
2022/07/04 10:09:56;;;;;;;1.30;0.80;;;24.70;95.50;;;;;;5091056;28;20934;-84
2022/07/04 10:12:28;;;;;;;1.60;0.90;;;24.30;96.90;;;;;;5073146;28;20473;-85
2022/07/04 10:14:56;;;;;;;3.28;0.85;;;24.60;96.60;;;;;;5071568;28;20390;-85
2022/07/04 10:17:22;;;;;;;4.95;1.05;;;24.60;97.40;;;;;;5070777;28;20390;-86
2022/07/04 10:19:50;;;;;;;2.37;0.90;;;24.90;97.00;;;;;;5072736;28;20474;-84
2022/07/04 10:22:18;;;;;;;8.15;1.10;;;25.20;97.10;;;;;;5089151;28;20897;-85
2022/07/04 10:24:43;;;;;;;2.40;1.00;;;25.50;96.40;;;;;;5090348;28;20381;-85
2022/07/04 10:27:10;;;;;;;3.30;0.90;;;25.70;96.10;;;;;;5089270;28;20410;-86
2022/07/04 10:29:36;;;;;;;2.78;0.88;;;25.70;96.30;;;;;;5090587;28;20986;-86
2022/07/04 10:32:02;;;;;;;4.10;1.00;;;25.80;96.00;;;;;;5086362;28;20398;-85
2022/07/04 10:34:28;;;;;;;2.50;1.10;;;25.90;94.20;;;;;;5084327;28;20753;-87
2022/07/04 10:36:53;;;;;;;2.30;1.00;;;25.60;96.10;;;;;;5084772;28;20379;-84
2022/07/04 10:39:23;;;;;;;2.95;1.00;;;25.60;95.10;;;;;;5084939;28;20403;-83
2022/07/04 10:41:59;;;;;;;2.80;0.90;;;25.60;95.00;;;;;;5083528;28;20860;-84
2022/07/04 10:44:26;;;;;;;3.17;0.90;;;25.70;93.70;;;;;;5082054;28;20718;-85
2022/07/04 10:46:56;;;;;;;1.48;0.70;;;25.60;94.60;;;;;;5086430;28;20394;-86
2022/07/04 10:49:25;;;;;;;4.35;1.20;;;26.00;94.20;;;;;;5085368;28;20376;-85
2022/07/04 10:51:53;;;;;;;1.20;0.70;;;26.50;93.10;;;;;;5084844;28;20930;-86
2022/07/04 10:54:18;;;;;;;2.75;0.93;;;26.40;93.10;;;;;;5082949;28;20435;-86
2022/07/04 10:56:55;;;;;;;3.80;0.98;;;26.00;93.20;;;;;;5086650;28;20763;-84
2022/07/04 10:59:22;;;;;;;1.73;0.90;;;25.70;92.90;;;;;;5083261;28;20467;-85
2022/07/04 11:01:57;;;;;;;1.67;0.77;;;25.30;92.00;;;;;;5084632;28;20395;-84
2022/07/04 11:04:42;;;;;;;2.30;0.90;;;;;;;;;;5079071;28;20416;-84
2022/07/04 11:07:08;;;;;;;3.00;0.80;;;;;;;;;;5080135;28;20434;-85
2022/07/04 11:09:35;;;;;;;2.63;1.10;;;;;;;;;;5085845;28;20372;-84
2022/07/04 11:12:06;;;;;;;3.47;0.95;;;;;;;;;;5084679;28;20412;-85
2022/07/04 11:14:43;;;;;;;1.40;0.90;;;;;;;;;;5082451;28;20376;-86
2022/07/04 11:17:19;;;;;;;1.10;0.85;;;25.40;93.30;;;;;;5083121;28;20413;-85
2022/07/04 11:19:45;;;;;;;1.17;0.75;;;25.70;94.20;;;;;;5082641;28;20412;-84
2022/07/04 11:22:11;;;;;;;2.47;0.88;;;26.00;93.70;;;;;;5083659;28;20863;-84
2022/07/04 11:24:38;;;;;;;1.77;1.10;;;26.10;94.60;;;;;;5084389;28;20427;-85
2022/07/04 11:27:06;;;;;;;3.00;0.95;;;26.30;93.60;;;;;;5085186;28;20797;-84
2022/07/04 11:29:32;;;;;;;1.23;0.82;;;26.50;92.00;;;;;;5084934;28;20378;-84
2022/07/04 11:31:59;;;;;;;2.38;0.80;;;;;;;;;;5081749;28;20412;-84
2022/07/04 11:34:31;;;;;;;0.97;0.73;;;;;;;;;;5080747;28;20754;-85
2022/07/04 11:37:01;;;;;;;2.97;0.80;;;26.30;99.90;;;;;;5085146;28;20365;-84
2022/07/04 11:39:27;;;;;;;3.00;0.75;;;26.80;99.90;;;;;;5085359;28;20422;-84
2022/07/04 11:47:25;;;;;;;3.60;0.90;;;26.60;85.80;;;;;;5082895;28;20409;-85
2022/07/04 11:49:59;;;;;;;3.30;1.00;;;26.30;87.90;;;;;;5085309;28;20425;-86
2022/07/04 11:52:30;;;;;;;4.47;0.90;;;26.40;88.80;;;;;;5082487;28;20869;-84
2022/07/04 11:54:57;;;;;;;2.67;1.13;;;26.30;89.30;;;;;;5081611;28;20386;-83
2022/07/04 11:57:26;;;;;;;1.58;0.63;;;26.00;86.40;;;;;;5083521;28;20384;-85
2022/07/04 12:00:05;;;;;;;2.65;0.90;;;25.70;88.50;;;;;;5083027;28;20376;-83
2022/07/04 12:02:35;;;;;;;1.92;0.93;;;25.50;90.00;;;;;;5082893;28;20429;-84
2022/07/04 12:05:03;;;;;;;2.92;0.80;;;25.50;90.00;;;;;;5085335;28;21272;-84
2022/07/04 12:07:32;;;;;;;1.80;0.85;;;25.70;90.40;;;;;;5083566;28;20399;-83
2022/07/04 12:10:16;;;;;;;2.13;0.82;;;25.90;89.90;;;;;;5083196;28;20504;-84
2022/07/04 12:12:56;;;;;;;1.80;0.90;;;26.40;86.80;;;;;;5091495;28;20378;-82
2022/07/04 12:15:39;;;;;;;2.63;0.80;;;26.50;87.60;;;;;;5086350;28;21032;-84
2022/07/04 12:18:14;;;;;;;2.08;0.80;;;26.30;86.40;;;;;;5084360;27;20387;-85
2022/07/04 12:20:40;;;;;;;1.67;0.83;;;26.20;88.80;;;;;;5091370;28;20913;-83
2022/07/04 12:23:05;;;;;;;0.80;0.70;;;25.80;86.00;;;;;;5071976;28;20385;-85
2022/07/04 12:25:38;;;;;;;1.70;0.70;;;25.50;90.00;;;;;;5079042;28;20380;-85
2022/07/04 12:28:09;;;;;;;1.58;0.82;;;25.70;91.10;;;;;;5075156;28;20750;-84
2022/07/04 12:30:37;;;;;;;2.88;0.73;;;25.90;89.50;;;;;;5070895;28;20389;-85
2022/07/04 12:33:05;;;;;;;3.60;1.02;;;25.80;90.40;;;;;;5074673;28;20400;-84
2022/07/04 12:35:38;;;;;;;2.40;0.90;;;25.70;89.40;;;;;;5086636;28;20399;-85
2022/07/04 12:38:10;;;;;;;1.65;0.90;;;25.30;90.00;;;;;;5074515;28;20852;-85
2022/07/04 12:40:48;;;;;;;2.20;0.77;;;25.10;90.70;;;;;;5078581;28;21494;-83
2022/07/04 12:43:14;;;;;;;2.83;1.13;;;25.30;89.10;;;;;;5072011;28;20446;-84
2022/07/04 12:45:53;;;;;;;3.38;1.15;;;25.30;87.00;;;;;;5076283;28;20751;-84
2022/07/04 12:48:29;;;;;;;1.10;0.80;;;25.20;87.20;;;;;;5074757;28;20407;-83
2022/07/04 12:51:09;;;;;;;1.52;0.80;;;25.00;84.60;;;;;;5080773;28;20376;-84
2022/07/04 12:53:40;;;;;;;1.70;0.80;;;24.60;85.20;;;;;;5078843;28;21046;-84
2022/07/04 12:56:07;;;;;;;1.20;0.77;;;24.40;89.10;;;;;;5079649;28;20377;-85
2022/07/04 12:58:33;;;;;;;1.88;0.77;;;24.60;90.20;;;;;;5084774;28;20424;-83
2022/07/04 13:00:58;;;;;;;1.30;1.00;;;24.60;90.10;;;;;;5081744;28;20911;-84
2022/07/04 13:03:24;;;;;;;4.53;1.00;;;24.40;92.30;;;;;;5083228;28;20750;-83